sensor_id;sensor_type;location;lat;lon;timestamp;temperature;humidity
43414;DHT22;29013;49.676;8.606;2023-03-23T00:04:28;14.6;96.6
43414;DHT22;29013;49.676;8.606;2023-03-23T00:10:11;14.6;96.7
43414;DHT22;29013;49.676;8.606;2023-03-23T00:15:38;14.7;96.4
43414;DHT22;29013;49.676;8.606;2023-03-23T00:21:04;14.7;96.6
43414;DHT22;29013;49.676;8.606;2023-03-23T00:26:30;14.6;96.4
43414;DHT22;29013;49.676;8.606;2023-03-23T00:31:55;14.3;96.5
43414;DHT22;29013;49.676;8.606;2023-03-23T00:37:20;14.3;96.9
43414;DHT22;29013;49.676;8.606;2023-03-23T00:42:47;14.4;96.9
43414;DHT22;29013;49.676;8.606;2023-03-23T00:48:13;14.4;96.9
43414;DHT22;29013;49.676;8.606;2023-03-23T00:53:38;14.5;97.1
43414;DHT22;29013;49.676;8.606;2023-03-23T00:59:03;14.5;96.7
43414;DHT22;29013;49.676;8.606;2023-03-23T01:04:45;14.5;96.9
43414;DHT22;29013;49.676;8.606;2023-03-23T01:10:13;14.6;96.4
43414;DHT22;29013;49.676;8.606;2023-03-23T01:15:55;14.5;96.7
43414;DHT22;29013;49.676;8.606;2023-03-23T01:21:21;14.7;96.4
43414;DHT22;29013;49.676;8.606;2023-03-23T01:26:47;14.6;96.4
43414;DHT22;29013;49.676;8.606;2023-03-23T01:32:11;14.3;96.3
43414;DHT22;29013;49.676;8.606;2023-03-23T01:37:33;14.1;96.6
43414;DHT22;29013;49.676;8.606;2023-03-23T01:42:59;14.1;96.8
43414;DHT22;29013;49.676;8.606;2023-03-23T01:48:24;14.2;97.0
43414;DHT22;29013;49.676;8.606;2023-03-23T01:53:48;14.3;96.8
43414;DHT22;29013;49.676;8.606;2023-03-23T01:59:13;14.4;96.6
43414;DHT22;29013;49.676;8.606;2023-03-23T02:04:33;14.4;96.7
43414;DHT22;29013;49.676;8.606;2023-03-23T02:09:56;14.4;96.5
43414;DHT22;29013;49.676;8.606;2023-03-23T02:16:03;14.4;96.9
43414;DHT22;29013;49.676;8.606;2023-03-23T02:21:48;14.6;96.4
43414;DHT22;29013;49.676;8.606;2023-03-23T02:27:13;14.6;96.3
43414;DHT22;29013;49.676;8.606;2023-03-23T02:32:44;14.5;96.5
43414;DHT22;29013;49.676;8.606;2023-03-23T02:38:08;14.3;96.5
43414;DHT22;29013;49.676;8.606;2023-03-23T02:43:58;13.9;97.0
43414;DHT22;29013;49.676;8.606;2023-03-23T02:49:22;13.9;97.0
43414;DHT22;29013;49.676;8.606;2023-03-23T02:54:44;14.0;97.1
43414;DHT22;29013;49.676;8.606;2023-03-23T03:00:13;14.1;97.0
43414;DHT22;29013;49.676;8.606;2023-03-23T03:05:38;14.2;97.1
43414;DHT22;29013;49.676;8.606;2023-03-23T03:10:59;14.2;97.0
43414;DHT22;29013;49.676;8.606;2023-03-23T03:16:27;14.2;97.0
43414;DHT22;29013;49.676;8.606;2023-03-23T03:21:46;14.2;96.9
43414;DHT22;29013;49.676;8.606;2023-03-23T03:27:14;14.2;96.9
43414;DHT22;29013;49.676;8.606;2023-03-23T03:32:41;14.3;97.0
43414;DHT22;29013;49.676;8.606;2023-03-23T03:38:09;14.3;97.0
43414;DHT22;29013;49.676;8.606;2023-03-23T03:43:34;14.3;96.9
43414;DHT22;29013;49.676;8.606;2023-03-23T03:49:00;14.0;96.8
43414;DHT22;29013;49.676;8.606;2023-03-23T03:54:25;13.8;97.3
43414;DHT22;29013;49.676;8.606;2023-03-23T03:59:53;13.9;97.4
43414;DHT22;29013;49.676;8.606;2023-03-23T04:05:18;14.0;97.5
43414;DHT22;29013;49.676;8.606;2023-03-23T04:10:45;14.1;97.3
43414;DHT22;29013;49.676;8.606;2023-03-23T04:16:10;14.1;97.4
43414;DHT22;29013;49.676;8.606;2023-03-23T04:21:35;14.2;97.5
43414;DHT22;29013;49.676;8.606;2023-03-23T04:26:56;14.2;97.5
43414;DHT22;29013;49.676;8.606;2023-03-23T04:32:45;14.0;98.0
43414;DHT22;29013;49.676;8.606;2023-03-23T04:38:14;13.7;98.0
43414;DHT22;29013;49.676;8.606;2023-03-23T04:43:37;13.4;98.4
43414;DHT22;29013;49.676;8.606;2023-03-23T04:49:03;13.2;99.0
43414;DHT22;29013;49.676;8.606;2023-03-23T04:54:53;13.0;99.4
43414;DHT22;29013;49.676;8.606;2023-03-23T05:00:18;13.3;99.4
43414;DHT22;29013;49.676;8.606;2023-03-23T05:05:42;13.5;99.3
43414;DHT22;29013;49.676;8.606;2023-03-23T05:11:08;13.7;99.4
43414;DHT22;29013;49.676;8.606;2023-03-23T05:16:30;13.8;99.4
43414;DHT22;29013;49.676;8.606;2023-03-23T05:21:57;14.0;99.1
43414;DHT22;29013;49.676;8.606;2023-03-23T05:27:21;14.1;99.0
43414;DHT22;29013;49.676;8.606;2023-03-23T05:32:46;14.1;99.1
43414;DHT22;29013;49.676;8.606;2023-03-23T05:38:08;14.3;98.3
43414;DHT22;29013;49.676;8.606;2023-03-23T05:43:32;14.5;98.7
43414;DHT22;29013;49.676;8.606;2023-03-23T05:48:58;14.6;98.7
43414;DHT22;29013;49.676;8.606;2023-03-23T05:54:22;14.7;98.6
43414;DHT22;29013;49.676;8.606;2023-03-23T05:59:48;14.7;98.7
43414;DHT22;29013;49.676;8.606;2023-03-23T06:05:12;14.6;98.7
43414;DHT22;29013;49.676;8.606;2023-03-23T06:10:38;14.5;98.9
43414;DHT22;29013;49.676;8.606;2023-03-23T06:16:06;14.6;98.9
43414;DHT22;29013;49.676;8.606;2023-03-23T06:21:30;14.6;99.0
43414;DHT22;29013;49.676;8.606;2023-03-23T06:26:54;14.6;98.9
43414;DHT22;29013;49.676;8.606;2023-03-23T06:32:24;14.7;98.9
43414;DHT22;29013;49.676;8.606;2023-03-23T06:37:48;14.7;98.8
43414;DHT22;29013;49.676;8.606;2023-03-23T06:43:14;14.7;98.9
43414;DHT22;29013;49.676;8.606;2023-03-23T06:48:38;14.7;98.9
43414;DHT22;29013;49.676;8.606;2023-03-23T06:54:05;14.7;98.8
43414;DHT22;29013;49.676;8.606;2023-03-23T06:59:29;14.7;98.9
43414;DHT22;29013;49.676;8.606;2023-03-23T07:04:55;14.7;98.9
43414;DHT22;29013;49.676;8.606;2023-03-23T07:10:36;14.6;99.3
43414;DHT22;29013;49.676;8.606;2023-03-23T07:16:00;14.7;98.9
43414;DHT22;29013;49.676;8.606;2023-03-23T07:21:26;14.7;99.0
43414;DHT22;29013;49.676;8.606;2023-03-23T07:26:49;14.7;99.0
43414;DHT22;29013;49.676;8.606;2023-03-23T07:32:15;14.7;99.1
43414;DHT22;29013;49.676;8.606;2023-03-23T07:37:48;14.6;99.2
43414;DHT22;29013;49.676;8.606;2023-03-23T07:43:12;14.6;99.2
43414;DHT22;29013;49.676;8.606;2023-03-23T07:48:37;14.6;99.2
43414;DHT22;29013;49.676;8.606;2023-03-23T07:54:03;14.6;99.3
43414;DHT22;29013;49.676;8.606;2023-03-23T07:59:29;14.7;99.4
43414;DHT22;29013;49.676;8.606;2023-03-23T08:04:54;14.7;99.5
43414;DHT22;29013;49.676;8.606;2023-03-23T08:10:20;14.7;99.4
43414;DHT22;29013;49.676;8.606;2023-03-23T08:15:48;14.8;99.5
43414;DHT22;29013;49.676;8.606;2023-03-23T08:21:08;14.8;99.6
43414;DHT22;29013;49.676;8.606;2023-03-23T08:26:34;14.8;99.8
43414;DHT22;29013;49.676;8.606;2023-03-23T08:32:01;14.7;99.9
43414;DHT22;29013;49.676;8.606;2023-03-23T08:37:42;14.7;99.9
43414;DHT22;29013;49.676;8.606;2023-03-23T08:43:45;14.7;99.9
43414;DHT22;29013;49.676;8.606;2023-03-23T08:49:11;14.7;99.9
43414;DHT22;29013;49.676;8.606;2023-03-23T08:54:29;14.7;99.9
43414;DHT22;29013;49.676;8.606;2023-03-23T09:00:18;14.7;99.9
43414;DHT22;29013;49.676;8.606;2023-03-23T09:05:36;14.9;99.9
43414;DHT22;29013;49.676;8.606;2023-03-23T09:11:03;14.8;99.9
43414;DHT22;29013;49.676;8.606;2023-03-23T09:16:27;14.8;99.9
43414;DHT22;29013;49.676;8.606;2023-03-23T09:22:47;14.7;99.9
43414;DHT22;29013;49.676;8.606;2023-03-23T09:28:27;15.0;99.8
43414;DHT22;29013;49.676;8.606;2023-03-23T09:34:09;15.1;99.4
43414;DHT22;29013;49.676;8.606;2023-03-23T09:39:34;15.4;98.8
43414;DHT22;29013;49.676;8.606;2023-03-23T09:45:05;15.5;98.5
43414;DHT22;29013;49.676;8.606;2023-03-23T09:50:31;15.6;98.3
43414;DHT22;29013;49.676;8.606;2023-03-23T09:55:55;15.6;97.7
43414;DHT22;29013;49.676;8.606;2023-03-23T10:01:23;15.7;97.7
43414;DHT22;29013;49.676;8.606;2023-03-23T10:06:49;15.8;97.8
43414;DHT22;29013;49.676;8.606;2023-03-23T10:12:18;15.8;97.7
43414;DHT22;29013;49.676;8.606;2023-03-23T10:17:38;15.7;97.7
43414;DHT22;29013;49.676;8.606;2023-03-23T10:23:14;15.7;98.0
43414;DHT22;29013;49.676;8.606;2023-03-23T10:28:42;16.0;98.1
43414;DHT22;29013;49.676;8.606;2023-03-23T10:34:08;16.2;98.2
43414;DHT22;29013;49.676;8.606;2023-03-23T10:39:26;16.4;98.6
43414;DHT22;29013;49.676;8.606;2023-03-23T10:44:54;16.4;98.6
43414;DHT22;29013;49.676;8.606;2023-03-23T10:50:17;16.4;98.8
43414;DHT22;29013;49.676;8.606;2023-03-23T10:55:40;16.3;98.6
43414;DHT22;29013;49.676;8.606;2023-03-23T11:01:34;16.3;99.0
43414;DHT22;29013;49.676;8.606;2023-03-23T11:07:00;16.4;98.6
43414;DHT22;29013;49.676;8.606;2023-03-23T11:12:32;16.2;98.5
43414;DHT22;29013;49.676;8.606;2023-03-23T11:18:00;16.0;98.6
43414;DHT22;29013;49.676;8.606;2023-03-23T11:23:40;15.9;99.1
43414;DHT22;29013;49.676;8.606;2023-03-23T11:29:10;15.8;99.7
43414;DHT22;29013;49.676;8.606;2023-03-23T11:34:32;15.8;99.9
43414;DHT22;29013;49.676;8.606;2023-03-23T11:40:22;15.7;99.9
43414;DHT22;29013;49.676;8.606;2023-03-23T11:45:52;15.7;99.7
43414;DHT22;29013;49.676;8.606;2023-03-23T11:51:11;15.5;99.9
43414;DHT22;29013;49.676;8.606;2023-03-23T11:57:05;15.5;99.9
43414;DHT22;29013;49.676;8.606;2023-03-23T12:09:15;15.7;99.9
43414;DHT22;29013;49.676;8.606;2023-03-23T12:14:44;15.8;99.9
43414;DHT22;29013;49.676;8.606;2023-03-23T12:20:20;15.8;99.9
43414;DHT22;29013;49.676;8.606;2023-03-23T12:26:08;15.9;99.9
43414;DHT22;29013;49.676;8.606;2023-03-23T12:31:31;16.4;99.9
43414;DHT22;29013;49.676;8.606;2023-03-23T12:42:38;16.6;99.7
43414;DHT22;29013;49.676;8.606;2023-03-23T12:48:02;16.7;99.5
43414;DHT22;29013;49.676;8.606;2023-03-23T12:53:28;16.8;98.7
43414;DHT22;29013;49.676;8.606;2023-03-23T12:58:56;16.7;98.3
43414;DHT22;29013;49.676;8.606;2023-03-23T13:04:18;16.8;98.3
43414;DHT22;29013;49.676;8.606;2023-03-23T13:09:45;16.9;98.3
43414;DHT22;29013;49.676;8.606;2023-03-23T13:15:15;16.8;97.7
43414;DHT22;29013;49.676;8.606;2023-03-23T13:20:57;16.7;97.5
43414;DHT22;29013;49.676;8.606;2023-03-23T13:26:18;16.8;97.5
43414;DHT22;29013;49.676;8.606;2023-03-23T13:31:38;16.7;97.4
43414;DHT22;29013;49.676;8.606;2023-03-23T13:37:04;16.6;97.6
43414;DHT22;29013;49.676;8.606;2023-03-23T13:42:29;16.6;98.0
43414;DHT22;29013;49.676;8.606;2023-03-23T13:48:17;16.8;98.0
43414;DHT22;29013;49.676;8.606;2023-03-23T13:54:06;17.1;97.9
43414;DHT22;29013;49.676;8.606;2023-03-23T13:59:33;17.3;97.3
43414;DHT22;29013;49.676;8.606;2023-03-23T14:04:55;17.1;97.1
43414;DHT22;29013;49.676;8.606;2023-03-23T14:10:21;16.9;97.2
43414;DHT22;29013;49.676;8.606;2023-03-23T14:15:45;16.7;97.2
43414;DHT22;29013;49.676;8.606;2023-03-23T14:21:05;16.7;97.4
43414;DHT22;29013;49.676;8.606;2023-03-23T14:26:32;16.7;97.4
43414;DHT22;29013;49.676;8.606;2023-03-23T14:31:57;16.7;97.5
43414;DHT22;29013;49.676;8.606;2023-03-23T14:37:21;16.6;97.5
43414;DHT22;29013;49.676;8.606;2023-03-23T14:42:49;16.7;97.6
43414;DHT22;29013;49.676;8.606;2023-03-23T14:48:14;16.8;97.5
43414;DHT22;29013;49.676;8.606;2023-03-23T14:53:42;16.8;97.3
43414;DHT22;29013;49.676;8.606;2023-03-23T14:59:09;16.9;97.5
43414;DHT22;29013;49.676;8.606;2023-03-23T15:04:33;16.8;97.3
43414;DHT22;29013;49.676;8.606;2023-03-23T15:10:53;16.7;97.9
43414;DHT22;29013;49.676;8.606;2023-03-23T15:16:19;16.8;97.1
43414;DHT22;29013;49.676;8.606;2023-03-23T15:21:51;16.7;97.3
43414;DHT22;29013;49.676;8.606;2023-03-23T15:27:16;16.8;97.1
43414;DHT22;29013;49.676;8.606;2023-03-23T15:32:42;16.8;97.3
43414;DHT22;29013;49.676;8.606;2023-03-23T15:38:02;16.7;97.4
43414;DHT22;29013;49.676;8.606;2023-03-23T15:43:27;16.6;97.8
43414;DHT22;29013;49.676;8.606;2023-03-23T15:49:04;16.5;98.0
43414;DHT22;29013;49.676;8.606;2023-03-23T15:54:20;16.4;98.5
43414;DHT22;29013;49.676;8.606;2023-03-23T15:59:43;16.4;98.6
43414;DHT22;29013;49.676;8.606;2023-03-23T16:05:10;16.4;98.8
43414;DHT22;29013;49.676;8.606;2023-03-23T16:10:31;16.3;98.9
43414;DHT22;29013;49.676;8.606;2023-03-23T16:15:55;16.3;98.9
43414;DHT22;29013;49.676;8.606;2023-03-23T16:21:23;16.2;99.1
43414;DHT22;29013;49.676;8.606;2023-03-23T16:27:15;16.1;99.2
43414;DHT22;29013;49.676;8.606;2023-03-23T16:32:38;16.0;99.0
43414;DHT22;29013;49.676;8.606;2023-03-23T16:38:05;16.0;99.2
43414;DHT22;29013;49.676;8.606;2023-03-23T16:43:39;16.0;99.5
43414;DHT22;29013;49.676;8.606;2023-03-23T16:49:01;16.0;99.4
43414;DHT22;29013;49.676;8.606;2023-03-23T16:54:28;15.9;99.6
43414;DHT22;29013;49.676;8.606;2023-03-23T16:59:53;15.9;99.8
43414;DHT22;29013;49.676;8.606;2023-03-23T17:05:27;15.8;99.9
43414;DHT22;29013;49.676;8.606;2023-03-23T17:10:50;15.8;99.9
43414;DHT22;29013;49.676;8.606;2023-03-23T17:16:13;15.9;99.9
43414;DHT22;29013;49.676;8.606;2023-03-23T17:21:41;15.8;99.9
43414;DHT22;29013;49.676;8.606;2023-03-23T17:27:06;15.7;99.9
43414;DHT22;29013;49.676;8.606;2023-03-23T17:32:35;15.7;99.9
43414;DHT22;29013;49.676;8.606;2023-03-23T17:38:02;15.7;99.9
43414;DHT22;29013;49.676;8.606;2023-03-23T17:43:27;15.4;99.9
43414;DHT22;29013;49.676;8.606;2023-03-23T17:48:52;15.2;99.9
43414;DHT22;29013;49.676;8.606;2023-03-23T17:54:19;15.2;99.9
43414;DHT22;29013;49.676;8.606;2023-03-23T17:59:41;15.2;99.9
43414;DHT22;29013;49.676;8.606;2023-03-23T18:05:08;15.3;99.9
43414;DHT22;29013;49.676;8.606;2023-03-23T18:10:28;15.3;99.9
43414;DHT22;29013;49.676;8.606;2023-03-23T18:15:53;15.3;99.9
43414;DHT22;29013;49.676;8.606;2023-03-23T18:21:14;15.3;99.9
43414;DHT22;29013;49.676;8.606;2023-03-23T18:26:40;15.2;99.9
43414;DHT22;29013;49.676;8.606;2023-03-23T18:32:08;15.2;99.9
43414;DHT22;29013;49.676;8.606;2023-03-23T18:37:34;15.2;99.9
43414;DHT22;29013;49.676;8.606;2023-03-23T18:43:22;15.1;99.9
43414;DHT22;29013;49.676;8.606;2023-03-23T18:48:45;15.0;99.9
43414;DHT22;29013;49.676;8.606;2023-03-23T18:54:05;14.8;99.9
43414;DHT22;29013;49.676;8.606;2023-03-23T18:59:32;14.9;99.9
43414;DHT22;29013;49.676;8.606;2023-03-23T19:04:51;14.9;99.9
43414;DHT22;29013;49.676;8.606;2023-03-23T19:10:17;14.9;99.9
43414;DHT22;29013;49.676;8.606;2023-03-23T19:15:40;14.9;99.9
43414;DHT22;29013;49.676;8.606;2023-03-23T19:21:00;14.9;99.9
43414;DHT22;29013;49.676;8.606;2023-03-23T19:26:22;14.9;99.9
43414;DHT22;29013;49.676;8.606;2023-03-23T19:31:48;14.9;99.9
43414;DHT22;29013;49.676;8.606;2023-03-23T19:37:12;14.8;99.9
43414;DHT22;29013;49.676;8.606;2023-03-23T19:42:36;14.8;99.9
43414;DHT22;29013;49.676;8.606;2023-03-23T19:47:58;14.8;99.9
43414;DHT22;29013;49.676;8.606;2023-03-23T19:53:46;14.7;99.9
43414;DHT22;29013;49.676;8.606;2023-03-23T19:59:11;14.8;99.9
43414;DHT22;29013;49.676;8.606;2023-03-23T20:04:31;14.8;99.9
43414;DHT22;29013;49.676;8.606;2023-03-23T20:09:54;14.7;99.9
43414;DHT22;29013;49.676;8.606;2023-03-23T20:15:18;14.5;99.9
43414;DHT22;29013;49.676;8.606;2023-03-23T20:20:42;14.2;99.9
43414;DHT22;29013;49.676;8.606;2023-03-23T20:26:08;14.0;99.9
43414;DHT22;29013;49.676;8.606;2023-03-23T20:31:27;14.1;99.9
43414;DHT22;29013;49.676;8.606;2023-03-23T20:36:50;14.2;99.9
43414;DHT22;29013;49.676;8.606;2023-03-23T20:42:13;14.2;99.9
43414;DHT22;29013;49.676;8.606;2023-03-23T20:47:39;14.3;99.9
43414;DHT22;29013;49.676;8.606;2023-03-23T20:53:04;14.4;99.9
43414;DHT22;29013;49.676;8.606;2023-03-23T20:58:28;14.4;99.9
43414;DHT22;29013;49.676;8.606;2023-03-23T21:03:53;14.4;99.9
43414;DHT22;29013;49.676;8.606;2023-03-23T21:09:19;14.5;99.9
43414;DHT22;29013;49.676;8.606;2023-03-23T21:14:46;14.5;99.9
43414;DHT22;29013;49.676;8.606;2023-03-23T21:20:12;14.6;99.9
43414;DHT22;29013;49.676;8.606;2023-03-23T21:25:38;14.6;99.9
43414;DHT22;29013;49.676;8.606;2023-03-23T21:31:03;14.6;99.9
43414;DHT22;29013;49.676;8.606;2023-03-23T21:36:46;14.7;99.9
43414;DHT22;29013;49.676;8.606;2023-03-23T21:42:11;14.9;99.9
43414;DHT22;29013;49.676;8.606;2023-03-23T21:47:37;14.8;99.9
43414;DHT22;29013;49.676;8.606;2023-03-23T21:53:02;14.6;99.9
43414;DHT22;29013;49.676;8.606;2023-03-23T21:58:58;14.5;99.9
43414;DHT22;29013;49.676;8.606;2023-03-23T22:04:19;14.8;99.9
43414;DHT22;29013;49.676;8.606;2023-03-23T22:09:43;14.8;99.9
43414;DHT22;29013;49.676;8.606;2023-03-23T22:15:11;14.8;99.9
43414;DHT22;29013;49.676;8.606;2023-03-23T22:20:34;14.8;99.9
43414;DHT22;29013;49.676;8.606;2023-03-23T22:26:21;14.7;99.9
43414;DHT22;29013;49.676;8.606;2023-03-23T22:31:49;14.8;99.9
43414;DHT22;29013;49.676;8.606;2023-03-23T22:37:36;14.8;99.9
43414;DHT22;29013;49.676;8.606;2023-03-23T22:43:23;14.9;99.9
43414;DHT22;29013;49.676;8.606;2023-03-23T22:48:48;14.9;99.9
43414;DHT22;29013;49.676;8.606;2023-03-23T22:54:10;14.8;99.9
43414;DHT22;29013;49.676;8.606;2023-03-23T22:59:32;14.8;99.9
43414;DHT22;29013;49.676;8.606;2023-03-23T23:04:56;14.8;99.9
43414;DHT22;29013;49.676;8.606;2023-03-23T23:10:38;14.7;99.9
43414;DHT22;29013;49.676;8.606;2023-03-23T23:16:18;14.7;99.9
43414;DHT22;29013;49.676;8.606;2023-03-23T23:21:43;14.5;99.9
43414;DHT22;29013;49.676;8.606;2023-03-23T23:27:09;14.2;99.9
43414;DHT22;29013;49.676;8.606;2023-03-23T23:32:35;14.3;99.9
43414;DHT22;29013;49.676;8.606;2023-03-23T23:38:01;14.4;99.9
43414;DHT22;29013;49.676;8.606;2023-03-23T23:43:50;14.4;99.9
43414;DHT22;29013;49.676;8.606;2023-03-23T23:49:15;14.5;99.9
43414;DHT22;29013;49.676;8.606;2023-03-23T23:54:40;14.5;99.9
